sensor_id;sensor_type;location;lat;lon;timestamp;pressure;altitude;pressure_sealevel;temperature;humidity
11692;BME280;33659;42.672;23.354;2023-07-13T00:01:29;69829.28;;;26.51;46.51
11692;BME280;33659;42.672;23.354;2023-07-13T00:03:58;69769.44;;;26.59;46.15
11692;BME280;33659;42.672;23.354;2023-07-13T00:06:25;69856.03;;;26.73;46.03
11692;BME280;33659;42.672;23.354;2023-07-13T00:08:58;69791.84;;;26.80;47.19
11692;BME280;33659;42.672;23.354;2023-07-13T00:11:25;69863.59;;;26.78;47.09
11692;BME280;33659;42.672;23.354;2023-07-13T00:13:51;69850.56;;;26.68;46.41
11692;BME280;33659;42.672;23.354;2023-07-13T00:16:18;69790.75;;;26.79;46.42
11692;BME280;33659;42.672;23.354;2023-07-13T00:18:46;69793.56;;;26.84;46.88
11692;BME280;33659;42.672;23.354;2023-07-13T00:21:14;69790.28;;;26.81;46.80
11692;BME280;33659;42.672;23.354;2023-07-13T00:23:42;69864.78;;;26.81;46.94
11692;BME280;33659;42.672;23.354;2023-07-13T00:26:10;69864.78;;;26.81;47.09
11692;BME280;33659;42.672;23.354;2023-07-13T00:28:38;69865.31;;;26.82;46.86
11692;BME280;33659;42.672;23.354;2023-07-13T00:31:07;69798.97;;;26.87;46.82
11692;BME280;33659;42.672;23.354;2023-07-13T00:33:34;69794.25;;;26.90;47.05
11692;BME280;33659;42.672;23.354;2023-07-13T00:36:01;69800.13;;;26.90;46.82
11692;BME280;33659;42.672;23.354;2023-07-13T00:38:30;69798.47;;;26.89;46.74
11692;BME280;33659;42.672;23.354;2023-07-13T00:40:57;69799.16;;;26.94;46.95
11692;BME280;33659;42.672;23.354;2023-07-13T00:43:27;69796.50;;;26.94;46.71
11692;BME280;33659;42.672;23.354;2023-07-13T00:46:25;69808.25;;;26.95;46.90
11692;BME280;33659;42.672;23.354;2023-07-13T00:48:54;69801.13;;;26.89;47.21
11692;BME280;33659;42.672;23.354;2023-07-13T00:51:27;69778.72;;;26.68;47.34
11692;BME280;33659;42.672;23.354;2023-07-13T00:53:58;69786.28;;;26.72;47.56
11692;BME280;33659;42.672;23.354;2023-07-13T00:56:26;69772.16;;;26.62;47.93
11692;BME280;33659;42.672;23.354;2023-07-13T00:58:54;69766.16;;;26.56;48.60
11692;BME280;33659;42.672;23.354;2023-07-13T01:01:21;69840.16;;;26.58;48.87
11692;BME280;33659;42.672;23.354;2023-07-13T01:03:48;69765.59;;;26.56;48.68
11692;BME280;33659;42.672;23.354;2023-07-13T01:06:15;69759.81;;;26.58;48.97
11692;BME280;33659;42.672;23.354;2023-07-13T01:08:43;69837.31;;;26.53;48.49
11692;BME280;33659;42.672;23.354;2023-07-13T01:11:11;69825.91;;;26.45;48.26
11692;BME280;33659;42.672;23.354;2023-07-13T01:13:38;69824.28;;;26.43;48.44
11692;BME280;33659;42.672;23.354;2023-07-13T01:16:13;69835.78;;;26.54;51.52
11692;BME280;33659;42.672;23.354;2023-07-13T01:18:41;69822.66;;;26.42;52.42
11692;BME280;33659;42.672;23.354;2023-07-13T01:21:09;69812.69;;;26.30;52.89
11692;BME280;33659;42.672;23.354;2023-07-13T01:23:36;69811.69;;;26.32;52.76
11692;BME280;33659;42.672;23.354;2023-07-13T01:26:02;69810.03;;;26.30;52.62
11692;BME280;33659;42.672;23.354;2023-07-13T01:28:30;69805.13;;;26.26;52.19
11692;BME280;33659;42.672;23.354;2023-07-13T01:30:58;69727.41;;;26.23;51.85
11692;BME280;33659;42.672;23.354;2023-07-13T01:33:25;69801.28;;;26.22;52.42
11692;BME280;33659;42.672;23.354;2023-07-13T01:35:52;69797.53;;;26.21;52.79
11692;BME280;33659;42.672;23.354;2023-07-13T01:38:22;69803.47;;;26.24;52.57
11692;BME280;33659;42.672;23.354;2023-07-13T01:40:49;69732.78;;;26.25;52.41
11692;BME280;33659;42.672;23.354;2023-07-13T01:43:17;69723.03;;;26.18;52.37
11692;BME280;33659;42.672;23.354;2023-07-13T01:45:44;69767.38;;;25.90;52.72
11692;BME280;33659;42.672;23.354;2023-07-13T01:48:11;69739.91;;;25.62;53.21
11692;BME280;33659;42.672;23.354;2023-07-13T01:50:38;69709.94;;;25.37;53.57
11692;BME280;33659;42.672;23.354;2023-07-13T01:53:05;69615.38;;;25.18;53.63
11692;BME280;33659;42.672;23.354;2023-07-13T01:55:33;69667.25;;;24.97;53.09
11692;BME280;33659;42.672;23.354;2023-07-13T01:58:00;69569.50;;;24.75;52.38
11692;BME280;33659;42.672;23.354;2023-07-13T02:00:27;69631.75;;;24.64;52.86
11692;BME280;33659;42.672;23.354;2023-07-13T02:02:54;69630.66;;;24.63;54.01
11692;BME280;33659;42.672;23.354;2023-07-13T02:05:22;69637.28;;;24.72;53.65
11692;BME280;33659;42.672;23.354;2023-07-13T02:07:48;69649.78;;;24.81;54.13
11692;BME280;33659;42.672;23.354;2023-07-13T02:10:15;69663.53;;;24.96;53.71
11692;BME280;33659;42.672;23.354;2023-07-13T02:12:44;69612.59;;;25.13;53.88
11692;BME280;33659;42.672;23.354;2023-07-13T02:15:11;69698.47;;;25.26;53.21
11692;BME280;33659;42.672;23.354;2023-07-13T02:17:38;69711.59;;;25.38;51.59
11692;BME280;33659;42.672;23.354;2023-07-13T02:20:06;69712.75;;;25.42;51.79
11692;BME280;33659;42.672;23.354;2023-07-13T02:22:33;69645.34;;;25.44;51.18
11692;BME280;33659;42.672;23.354;2023-07-13T02:25:00;69638.81;;;25.37;50.48
11692;BME280;33659;42.672;23.354;2023-07-13T02:27:27;69609.94;;;25.13;51.04
11692;BME280;33659;42.672;23.354;2023-07-13T02:29:55;69670.56;;;25.00;52.19
11692;BME280;33659;42.672;23.354;2023-07-13T02:32:21;69652.03;;;24.85;52.14
11692;BME280;33659;42.672;23.354;2023-07-13T02:34:50;69570.06;;;24.76;51.85
11692;BME280;33659;42.672;23.354;2023-07-13T02:37:17;69551.50;;;24.58;52.58
11692;BME280;33659;42.672;23.354;2023-07-13T02:39:44;69599.59;;;24.37;53.02
11692;BME280;33659;42.672;23.354;2023-07-13T02:42:11;69586.91;;;24.22;53.25
11692;BME280;33659;42.672;23.354;2023-07-13T02:44:37;69580.38;;;24.16;53.59
11692;BME280;33659;42.672;23.354;2023-07-13T02:47:06;69502.81;;;24.11;54.07
11692;BME280;33659;42.672;23.354;2023-07-13T02:49:33;69572.16;;;24.09;54.56
11692;BME280;33659;42.672;23.354;2023-07-13T02:51:59;69499.63;;;24.10;54.53
11692;BME280;33659;42.672;23.354;2023-07-13T02:54:26;69503.38;;;24.11;55.48
11692;BME280;33659;42.672;23.354;2023-07-13T02:56:53;69507.75;;;24.15;54.62
11692;BME280;33659;42.672;23.354;2023-07-13T02:59:19;69509.91;;;24.17;54.06
11692;BME280;33659;42.672;23.354;2023-07-13T03:01:46;69503.53;;;24.16;54.17
11692;BME280;33659;42.672;23.354;2023-07-13T03:04:14;69587.47;;;24.23;54.51
11692;BME280;33659;42.672;23.354;2023-07-13T03:06:45;69596.75;;;24.31;55.43
11692;BME280;33659;42.672;23.354;2023-07-13T03:09:11;69540.03;;;24.48;55.52
11692;BME280;33659;42.672;23.354;2023-07-13T03:11:39;69552.03;;;24.59;55.31
11692;BME280;33659;42.672;23.354;2023-07-13T03:14:06;69643.22;;;24.75;54.25
11692;BME280;33659;42.672;23.354;2023-07-13T03:16:33;69645.94;;;24.77;54.52
11692;BME280;33659;42.672;23.354;2023-07-13T03:19:00;69588.00;;;24.90;55.04
11692;BME280;33659;42.672;23.354;2023-07-13T03:21:28;69586.75;;;25.01;54.67
11692;BME280;33659;42.672;23.354;2023-07-13T03:23:55;69604.97;;;25.06;54.68
11692;BME280;33659;42.672;23.354;2023-07-13T03:26:21;69689.06;;;25.15;54.44
11692;BME280;33659;42.672;23.354;2023-07-13T03:28:48;69689.25;;;25.20;54.84
11692;BME280;33659;42.672;23.354;2023-07-13T03:31:18;69689.25;;;25.20;55.15
11692;BME280;33659;42.672;23.354;2023-07-13T03:33:45;69625.63;;;25.23;55.26
11692;BME280;33659;42.672;23.354;2023-07-13T03:36:15;69620.84;;;25.23;55.35
11692;BME280;33659;42.672;23.354;2023-07-13T03:38:46;69629.59;;;25.31;55.34
11692;BME280;33659;42.672;23.354;2023-07-13T03:41:13;69637.16;;;25.36;55.58
11692;BME280;33659;42.672;23.354;2023-07-13T03:43:40;69639.44;;;25.41;55.56
11692;BME280;33659;42.672;23.354;2023-07-13T03:46:07;69634.50;;;25.36;55.51
11692;BME280;33659;42.672;23.354;2023-07-13T03:48:33;69643.19;;;25.42;55.27
11692;BME280;33659;42.672;23.354;2023-07-13T03:51:00;69648.56;;;25.44;55.17
11692;BME280;33659;42.672;23.354;2023-07-13T03:53:27;69650.38;;;25.51;54.53
11692;BME280;33659;42.672;23.354;2023-07-13T03:55:55;69714.31;;;25.41;55.09
11692;BME280;33659;42.672;23.354;2023-07-13T03:58:40;69646.47;;;25.45;54.98
11692;BME280;33659;42.672;23.354;2023-07-13T04:01:09;69727.97;;;25.54;55.44
11692;BME280;33659;42.672;23.354;2023-07-13T04:03:36;69666.59;;;25.61;56.23
11692;BME280;33659;42.672;23.354;2023-07-13T04:06:06;69665.66;;;25.65;56.91
11692;BME280;33659;42.672;23.354;2023-07-13T04:08:35;69739.00;;;25.66;57.08
11692;BME280;33659;42.672;23.354;2023-07-13T04:11:04;69744.38;;;25.69;57.14
11692;BME280;33659;42.672;23.354;2023-07-13T04:13:31;69751.03;;;25.78;57.34
11692;BME280;33659;42.672;23.354;2023-07-13T04:15:58;69764.09;;;25.87;56.73
11692;BME280;33659;42.672;23.354;2023-07-13T04:18:24;69690.94;;;25.93;56.78
11692;BME280;33659;42.672;23.354;2023-07-13T04:20:51;69692.19;;;26.00;56.53
11692;BME280;33659;42.672;23.354;2023-07-13T04:23:18;69703.34;;;26.00;56.23
11692;BME280;33659;42.672;23.354;2023-07-13T04:25:46;69791.38;;;26.10;55.74
11692;BME280;33659;42.672;23.354;2023-07-13T04:28:16;69785.41;;;26.07;56.13
11692;BME280;33659;42.672;23.354;2023-07-13T04:30:43;69793.53;;;26.12;55.60
11692;BME280;33659;42.672;23.354;2023-07-13T04:33:10;69796.44;;;26.20;55.41
11692;BME280;33659;42.672;23.354;2023-07-13T04:35:36;69722.50;;;26.18;54.95
11692;BME280;33659;42.672;23.354;2023-07-13T04:38:03;69821.00;;;26.40;54.92
11692;BME280;33659;42.672;23.354;2023-07-13T04:40:31;69748.66;;;26.40;54.75
11692;BME280;33659;42.672;23.354;2023-07-13T04:42:57;69757.41;;;26.48;54.22
11692;BME280;33659;42.672;23.354;2023-07-13T04:45:26;69759.59;;;26.50;54.03
11692;BME280;33659;42.672;23.354;2023-07-13T04:47:52;69767.25;;;26.57;53.84
11692;BME280;33659;42.672;23.354;2023-07-13T04:50:19;69774.28;;;26.61;53.42
11692;BME280;33659;42.672;23.354;2023-07-13T04:52:48;69777.72;;;26.69;53.18
11692;BME280;33659;42.672;23.354;2023-07-13T04:55:16;69778.25;;;26.70;52.93
11692;BME280;33659;42.672;23.354;2023-07-13T04:57:43;69863.59;;;26.78;53.00
11692;BME280;33659;42.672;23.354;2023-07-13T05:00:11;69801.06;;;26.86;53.25
11692;BME280;33659;42.672;23.354;2023-07-13T05:02:39;69806.13;;;26.96;53.64
11692;BME280;33659;42.672;23.354;2023-07-13T05:05:07;69886.59;;;26.99;53.05
11692;BME280;33659;42.672;23.354;2023-07-13T05:07:33;69890.53;;;27.05;52.76
11692;BME280;33659;42.672;23.354;2023-07-13T05:10:00;69824.13;;;27.10;52.20
11692;BME280;33659;42.672;23.354;2023-07-13T05:12:27;69898.72;;;27.13;52.00
11692;BME280;33659;42.672;23.354;2023-07-13T05:14:54;69829.09;;;27.17;52.20
11692;BME280;33659;42.672;23.354;2023-07-13T05:17:21;69824.88;;;27.18;52.21
11692;BME280;33659;42.672;23.354;2023-07-13T05:19:49;69837.38;;;27.27;51.82
11692;BME280;33659;42.672;23.354;2023-07-13T05:22:16;69835.31;;;27.31;51.05
11692;BME280;33659;42.672;23.354;2023-07-13T05:24:42;69826.78;;;27.30;51.14
11692;BME280;33659;42.672;23.354;2023-07-13T05:27:09;69842.22;;;27.30;51.12
11692;BME280;33659;42.672;23.354;2023-07-13T05:29:36;69843.75;;;27.26;51.62
11692;BME280;33659;42.672;23.354;2023-07-13T05:32:04;69837.88;;;27.25;51.49
11692;BME280;33659;42.672;23.354;2023-07-13T05:34:31;69847.63;;;27.32;51.62
11692;BME280;33659;42.672;23.354;2023-07-13T05:36:59;69844.28;;;27.26;51.60
11692;BME280;33659;42.672;23.354;2023-07-13T05:39:26;69903.19;;;27.19;52.06
11692;BME280;33659;42.672;23.354;2023-07-13T05:41:53;69825.28;;;27.14;52.09
11692;BME280;33659;42.672;23.354;2023-07-13T05:44:19;69819.81;;;27.09;52.29
11692;BME280;33659;42.672;23.354;2023-07-13T05:46:46;69885.56;;;27.00;52.37
11692;BME280;33659;42.672;23.354;2023-07-13T05:49:13;69796.84;;;26.87;53.00
11692;BME280;33659;42.672;23.354;2023-07-13T05:51:40;69786.94;;;26.76;52.98
11692;BME280;33659;42.672;23.354;2023-07-13T05:54:08;69851.66;;;26.69;53.49
11692;BME280;33659;42.672;23.354;2023-07-13T05:56:34;69781.53;;;26.73;53.30
11692;BME280;33659;42.672;23.354;2023-07-13T05:59:01;69784.81;;;26.76;53.73
11692;BME280;33659;42.672;23.354;2023-07-13T06:01:30;69787.28;;;26.88;53.30
11692;BME280;33659;42.672;23.354;2023-07-13T06:03:57;69876.81;;;26.92;53.52
11692;BME280;33659;42.672;23.354;2023-07-13T06:06:23;69805.66;;;26.98;52.80
11692;BME280;33659;42.672;23.354;2023-07-13T06:08:50;69816.53;;;27.06;52.53
11692;BME280;33659;42.672;23.354;2023-07-13T06:11:21;69809.66;;;27.07;52.67
11692;BME280;33659;42.672;23.354;2023-07-13T06:13:48;69826.31;;;27.12;52.51
11692;BME280;33659;42.672;23.354;2023-07-13T06:16:15;69819.84;;;27.29;51.07
11692;BME280;33659;42.672;23.354;2023-07-13T06:18:43;69848.25;;;27.35;50.63
11692;BME280;33659;42.672;23.354;2023-07-13T06:21:12;69857.47;;;27.41;51.17
11692;BME280;33659;42.672;23.354;2023-07-13T06:23:39;69871.78;;;27.57;51.12
11692;BME280;33659;42.672;23.354;2023-07-13T06:26:06;69882.63;;;27.65;49.85
11692;BME280;33659;42.672;23.354;2023-07-13T06:28:34;69874.38;;;27.74;49.50
11692;BME280;33659;42.672;23.354;2023-07-13T06:31:02;69901.25;;;27.82;48.79
11692;BME280;33659;42.672;23.354;2023-07-13T06:33:30;69896.38;;;27.80;47.05
11692;BME280;33659;42.672;23.354;2023-07-13T06:35:57;69893.59;;;27.75;47.79
11692;BME280;33659;42.672;23.354;2023-07-13T06:38:24;69895.78;;;27.77;48.50
11692;BME280;33659;42.672;23.354;2023-07-13T06:40:51;69906.66;;;27.85;48.14
11692;BME280;33659;42.672;23.354;2023-07-13T06:43:18;69911.59;;;27.89;48.73
11692;BME280;33659;42.672;23.354;2023-07-13T06:45:48;69890.88;;;27.92;48.49
11692;BME280;33659;42.672;23.354;2023-07-13T06:48:17;69918.75;;;27.98;48.25
11692;BME280;33659;42.672;23.354;2023-07-13T06:50:44;69926.91;;;28.03;47.17
11692;BME280;33659;42.672;23.354;2023-07-13T06:53:12;70001.06;;;28.05;48.15
11692;BME280;33659;42.672;23.354;2023-07-13T06:55:39;69936.72;;;28.13;48.07
11692;BME280;33659;42.672;23.354;2023-07-13T06:58:06;69946.09;;;28.24;48.08
11692;BME280;33659;42.672;23.354;2023-07-13T07:00:33;69957.13;;;28.37;47.89
11692;BME280;33659;42.672;23.354;2023-07-13T07:03:01;69961.25;;;28.50;47.51
11692;BME280;33659;42.672;23.354;2023-07-13T07:05:28;69986.06;;;28.61;47.18
11692;BME280;33659;42.672;23.354;2023-07-13T07:07:55;69992.09;;;28.67;47.58
11692;BME280;33659;42.672;23.354;2023-07-13T07:10:22;70004.59;;;28.76;47.23
11692;BME280;33659;42.672;23.354;2023-07-13T07:12:49;70007.56;;;28.86;47.60
11692;BME280;33659;42.672;23.354;2023-07-13T07:15:16;70008.03;;;28.84;47.54
11692;BME280;33659;42.672;23.354;2023-07-13T07:17:43;70006.88;;;28.80;47.28
11692;BME280;33659;42.672;23.354;2023-07-13T07:20:12;70081.66;;;28.83;46.29
11692;BME280;33659;42.672;23.354;2023-07-13T07:22:38;69994.75;;;28.67;46.72
11692;BME280;33659;42.672;23.354;2023-07-13T07:25:05;69989.22;;;28.79;47.41
11692;BME280;33659;42.672;23.354;2023-07-13T07:27:33;69999.75;;;28.74;47.92
11692;BME280;33659;42.672;23.354;2023-07-13T07:30:00;69998.66;;;28.73;47.66
11692;BME280;33659;42.672;23.354;2023-07-13T07:32:29;69999.69;;;28.71;46.99
11692;BME280;33659;42.672;23.354;2023-07-13T07:34:56;69970.53;;;28.59;47.08
11692;BME280;33659;42.672;23.354;2023-07-13T07:37:24;69972.94;;;28.49;47.64
11692;BME280;33659;42.672;23.354;2023-07-13T07:39:51;69963.97;;;28.53;47.74
11692;BME280;33659;42.672;23.354;2023-07-13T07:42:18;69972.25;;;28.63;47.41
11692;BME280;33659;42.672;23.354;2023-07-13T07:44:44;69999.75;;;28.74;46.58
11692;BME280;33659;42.672;23.354;2023-07-13T07:47:11;69983.13;;;28.71;46.54
11692;BME280;33659;42.672;23.354;2023-07-13T07:49:38;69992.75;;;28.72;46.95
11692;BME280;33659;42.672;23.354;2023-07-13T07:52:06;69991.22;;;28.73;48.20
11692;BME280;33659;42.672;23.354;2023-07-13T07:54:34;70005.22;;;28.79;48.17
11692;BME280;33659;42.672;23.354;2023-07-13T07:57:01;69985.25;;;28.70;48.10
11692;BME280;33659;42.672;23.354;2023-07-13T07:59:28;69983.81;;;28.56;46.96
11692;BME280;33659;42.672;23.354;2023-07-13T08:01:54;69954.97;;;28.35;48.09
11692;BME280;33659;42.672;23.354;2023-07-13T08:04:21;69949.38;;;28.27;48.18
11692;BME280;33659;42.672;23.354;2023-07-13T08:06:48;69949.38;;;28.27;48.12
11692;BME280;33659;42.672;23.354;2023-07-13T08:09:15;70026.34;;;28.31;47.87
11692;BME280;33659;42.672;23.354;2023-07-13T08:11:43;69959.41;;;28.41;47.55
11692;BME280;33659;42.672;23.354;2023-07-13T08:14:09;69971.41;;;28.52;47.79
11692;BME280;33659;42.672;23.354;2023-07-13T08:16:36;69990.44;;;28.65;47.43
11692;BME280;33659;42.672;23.354;2023-07-13T08:19:03;70006.88;;;28.80;47.81
11692;BME280;33659;42.672;23.354;2023-07-13T08:21:31;70028.72;;;28.98;47.02
11692;BME280;33659;42.672;23.354;2023-07-13T08:23:58;70024.66;;;29.07;46.61
11692;BME280;33659;42.672;23.354;2023-07-13T08:26:24;70047.31;;;29.16;45.49
11692;BME280;33659;42.672;23.354;2023-07-13T08:28:52;70059.38;;;29.27;45.97
11692;BME280;33659;42.672;23.354;2023-07-13T08:31:19;70067.03;;;29.34;45.69
11692;BME280;33659;42.672;23.354;2023-07-13T08:33:46;70053.47;;;29.26;45.86
11692;BME280;33659;42.672;23.354;2023-07-13T08:36:13;70055.19;;;29.30;45.61
11692;BME280;33659;42.672;23.354;2023-07-13T08:38:39;70065.94;;;29.33;45.91
11692;BME280;33659;42.672;23.354;2023-07-13T08:41:11;70069.84;;;29.39;45.96
11692;BME280;33659;42.672;23.354;2023-07-13T08:43:38;70073.41;;;29.52;46.29
11692;BME280;33659;42.672;23.354;2023-07-13T08:46:12;70083.06;;;29.54;44.97
11692;BME280;33659;42.672;23.354;2023-07-13T08:48:44;70086.81;;;29.55;45.57
11692;BME280;33659;42.672;23.354;2023-07-13T08:51:28;70096.63;;;29.61;45.50
11692;BME280;33659;42.672;23.354;2023-07-13T08:53:59;70104.91;;;29.72;45.92
11692;BME280;33659;42.672;23.354;2023-07-13T08:56:30;70109.88;;;29.79;45.14
11692;BME280;33659;42.672;23.354;2023-07-13T08:58:59;70103.59;;;29.83;45.39
11692;BME280;33659;42.672;23.354;2023-07-13T09:01:33;70124.53;;;29.87;44.80
11692;BME280;33659;42.672;23.354;2023-07-13T09:04:11;70115.63;;;29.94;44.83
11692;BME280;33659;42.672;23.354;2023-07-13T09:06:48;70134.94;;;29.97;44.61
11692;BME280;33659;42.672;23.354;2023-07-13T09:09:26;70211.06;;;30.03;44.66
11692;BME280;33659;42.672;23.354;2023-07-13T09:12:04;70145.50;;;30.12;44.49
11692;BME280;33659;42.672;23.354;2023-07-13T09:14:40;70143.56;;;30.20;44.57
11692;BME280;33659;42.672;23.354;2023-07-13T09:17:15;70158.59;;;30.22;44.67
11692;BME280;33659;42.672;23.354;2023-07-13T09:19:43;70147.88;;;30.22;44.75
11692;BME280;33659;42.672;23.354;2023-07-13T09:22:15;70168.38;;;30.28;43.77
11692;BME280;33659;42.672;23.354;2023-07-13T09:24:52;70168.94;;;30.29;43.68
11692;BME280;33659;42.672;23.354;2023-07-13T09:27:26;70184.81;;;30.43;43.54
11692;BME280;33659;42.672;23.354;2023-07-13T09:30:01;70190.84;;;30.49;43.71
11692;BME280;33659;42.672;23.354;2023-07-13T09:32:30;70187.63;;;30.48;44.20
11692;BME280;33659;42.672;23.354;2023-07-13T09:34:57;70183.31;;;30.47;43.58
11692;BME280;33659;42.672;23.354;2023-07-13T09:37:30;70177.59;;;30.54;43.24
11692;BME280;33659;42.672;23.354;2023-07-13T09:39:59;70177.09;;;30.56;43.58
11692;BME280;33659;42.672;23.354;2023-07-13T09:42:28;70193.97;;;30.67;43.53
11692;BME280;33659;42.672;23.354;2023-07-13T09:44:56;70192.31;;;30.65;43.20
11692;BME280;33659;42.672;23.354;2023-07-13T09:47:25;70201.09;;;30.73;42.85
11692;BME280;33659;42.672;23.354;2023-07-13T09:49:58;70218.84;;;30.78;42.39
11692;BME280;33659;42.672;23.354;2023-07-13T09:52:26;70202.75;;;30.75;42.40
11692;BME280;33659;42.672;23.354;2023-07-13T09:54:54;70218.94;;;30.80;42.25
11692;BME280;33659;42.672;23.354;2023-07-13T09:57:26;70230.31;;;30.86;42.11
11692;BME280;33659;42.672;23.354;2023-07-13T09:59:54;70235.31;;;30.93;41.20
11692;BME280;33659;42.672;23.354;2023-07-13T10:02:25;70220.94;;;30.97;40.44
11692;BME280;33659;42.672;23.354;2023-07-13T10:04:58;70247.28;;;31.01;40.79
11692;BME280;33659;42.672;23.354;2023-07-13T10:07:25;70236.56;;;31.01;40.38
11692;BME280;33659;42.672;23.354;2023-07-13T10:09:53;70242.59;;;31.07;40.95
11692;BME280;33659;42.672;23.354;2023-07-13T10:12:21;70246.19;;;31.00;40.62
11692;BME280;33659;42.672;23.354;2023-07-13T10:14:50;70266.00;;;31.21;41.24
11692;BME280;33659;42.672;23.354;2023-07-13T10:17:19;70243.22;;;31.10;41.74
11692;BME280;33659;42.672;23.354;2023-07-13T10:19:51;70279.66;;;31.32;41.19
11692;BME280;33659;42.672;23.354;2023-07-13T10:22:23;70268.56;;;31.39;41.21
11692;BME280;33659;42.672;23.354;2023-07-13T10:24:52;70278.28;;;31.43;40.70
11692;BME280;33659;42.672;23.354;2023-07-13T10:27:24;70289.22;;;31.50;40.52
11692;BME280;33659;42.672;23.354;2023-07-13T10:30:04;70295.00;;;31.46;40.27
11692;BME280;33659;42.672;23.354;2023-07-13T10:32:34;70292.50;;;31.53;38.91
11692;BME280;33659;42.672;23.354;2023-07-13T10:35:00;70294.25;;;31.60;38.55
11692;BME280;33659;42.672;23.354;2023-07-13T10:37:35;70301.81;;;31.62;38.73
11692;BME280;33659;42.672;23.354;2023-07-13T10:40:11;70297.66;;;31.68;36.85
11692;BME280;33659;42.672;23.354;2023-07-13T10:42:42;70315.66;;;31.80;35.01
11692;BME280;33659;42.672;23.354;2023-07-13T10:45:13;70329.59;;;31.80;32.09
11692;BME280;33659;42.672;23.354;2023-07-13T10:47:41;70330.94;;;31.92;32.12
11692;BME280;33659;42.672;23.354;2023-07-13T10:50:15;70351.06;;;32.03;32.20
11692;BME280;33659;42.672;23.354;2023-07-13T10:52:46;70354.56;;;32.16;31.86
11692;BME280;33659;42.672;23.354;2023-07-13T10:55:33;70372.94;;;32.21;31.15
11692;BME280;33659;42.672;23.354;2023-07-13T10:58:02;70372.56;;;32.28;30.56
11692;BME280;33659;42.672;23.354;2023-07-13T11:00:43;70377.97;;;32.30;31.48
11692;BME280;33659;42.672;23.354;2023-07-13T11:03:14;70384.63;;;32.39;29.33
11692;BME280;33659;42.672;23.354;2023-07-13T11:05:41;70392.19;;;32.41;30.20
11692;BME280;33659;42.672;23.354;2023-07-13T11:08:19;70410.72;;;32.53;29.40
11692;BME280;33659;42.672;23.354;2023-07-13T11:10:51;70413.69;;;32.66;30.09
11692;BME280;33659;42.672;23.354;2023-07-13T11:13:38;70422.59;;;32.79;28.70
11692;BME280;33659;42.672;23.354;2023-07-13T11:16:34;70402.28;;;32.60;29.19
11692;BME280;33659;42.672;23.354;2023-07-13T11:19:25;70422.53;;;32.77;29.37
11692;BME280;33659;42.672;23.354;2023-07-13T11:22:09;70436.13;;;32.84;29.70
11692;BME280;33659;42.672;23.354;2023-07-13T11:24:57;70459.56;;;32.99;30.19
11692;BME280;33659;42.672;23.354;2023-07-13T11:27:34;70445.13;;;33.03;29.41
11692;BME280;33659;42.672;23.354;2023-07-13T11:30:34;70451.25;;;33.11;29.10
11692;BME280;33659;42.672;23.354;2023-07-13T11:33:04;70470.53;;;33.09;30.65
11692;BME280;33659;42.672;23.354;2023-07-13T11:35:43;70573.25;;;33.34;30.28
11692;BME280;33659;42.672;23.354;2023-07-13T11:38:15;70480.91;;;33.41;29.94
11692;BME280;33659;42.672;23.354;2023-07-13T11:40:45;70499.19;;;33.40;30.20
11692;BME280;33659;42.672;23.354;2023-07-13T11:43:14;70493.88;;;33.43;29.96
11692;BME280;33659;42.672;23.354;2023-07-13T11:45:41;70475.25;;;33.28;30.29
11692;BME280;33659;42.672;23.354;2023-07-13T11:48:19;70502.03;;;33.48;29.56
11692;BME280;33659;42.672;23.354;2023-07-13T11:50:54;70496.00;;;33.42;30.02
11692;BME280;33659;42.672;23.354;2023-07-13T11:53:24;70494.91;;;33.41;29.71
11692;BME280;33659;42.672;23.354;2023-07-13T11:55:54;70505.38;;;33.54;30.83
11692;BME280;33659;42.672;23.354;2023-07-13T11:58:24;70510.91;;;33.61;31.19
11692;BME280;33659;42.672;23.354;2023-07-13T12:00:55;70508.03;;;33.51;31.41
11692;BME280;33659;42.672;23.354;2023-07-13T12:03:25;70502.75;;;33.56;31.38
11692;BME280;33659;42.672;23.354;2023-07-13T12:05:56;70537.09;;;33.78;31.86
11692;BME280;33659;42.672;23.354;2023-07-13T12:08:23;70515.88;;;33.66;31.14
11692;BME280;33659;42.672;23.354;2023-07-13T12:10:59;70521.34;;;33.71;30.56
11692;BME280;33659;42.672;23.354;2023-07-13T12:13:27;70532.88;;;33.82;29.92
11692;BME280;33659;42.672;23.354;2023-07-13T12:15:54;70539.41;;;33.85;30.15
11692;BME280;33659;42.672;23.354;2023-07-13T12:18:24;70569.34;;;34.01;29.64
11692;BME280;33659;42.672;23.354;2023-07-13T12:20:57;70561.97;;;34.09;29.24
11692;BME280;33659;42.672;23.354;2023-07-13T12:23:26;70581.13;;;34.24;29.00
11692;BME280;33659;42.672;23.354;2023-07-13T12:25:55;70592.41;;;34.22;28.86
11692;BME280;33659;42.672;23.354;2023-07-13T12:28:36;70579.06;;;34.27;28.97
11692;BME280;33659;42.672;23.354;2023-07-13T12:31:22;70593.09;;;34.30;29.59
11692;BME280;33659;42.672;23.354;2023-07-13T12:33:56;70586.22;;;34.36;28.45
11692;BME280;33659;42.672;23.354;2023-07-13T12:36:23;70605.78;;;34.44;29.18
11692;BME280;33659;42.672;23.354;2023-07-13T12:38:50;70611.94;;;34.55;29.00
11692;BME280;33659;42.672;23.354;2023-07-13T12:41:17;70611.41;;;34.55;28.14
11692;BME280;33659;42.672;23.354;2023-07-13T12:43:46;70610.44;;;34.61;28.59
11692;BME280;33659;42.672;23.354;2023-07-13T12:46:18;70639.28;;;34.75;29.09
11692;BME280;33659;42.672;23.354;2023-07-13T12:48:49;70636.16;;;34.80;29.48
11692;BME280;33659;42.672;23.354;2023-07-13T12:51:17;70642.19;;;34.86;28.88
11692;BME280;33659;42.672;23.354;2023-07-13T12:53:48;70654.78;;;34.95;29.34
11692;BME280;33659;42.672;23.354;2023-07-13T12:56:19;70672.25;;;35.06;29.40
11692;BME280;33659;42.672;23.354;2023-07-13T12:58:50;70684.88;;;35.18;29.27
11692;BME280;33659;42.672;23.354;2023-07-13T13:01:21;70675.19;;;35.19;29.53